San Clemente, CA (92672)

4:38 PM PST on January 24, 2017 (GMT -0800)
| | Change Station
Active Advisory: High Surf Advisory

Elev -9999 ft 0.00 °N, 0.00 °E | Updated 10 minutes ago

Mostly Cloudy
Mostly Cloudy
°F
Feels Like °F
N
Wind Variable Wind from North
Gusts mph

Today
High -- | Low -- °F
--% Chance of Precip.
Yesterday
High -- | Low -- °F
Precip. -- in
Pressure 30.04 in
Visibility 7.0 miles
Clouds Few 3200 ft
Scattered Clouds 5500 ft
Mostly Cloudy 14000 ft
Dew Point Not available.
Humidity Not available.
Rainfall --
Snow Depth Not available.
6:51 AM 5:14 PM
Waning Crescent, 9% visible
METAR KNFG 242356Z 23005KT 7SM FEW032 SCT055 BKN140 12/06 A3004 RMK AO2 SLPNO T01220056 10133 20083 53009
Pressure 30.04 in
Visibility 7.0 miles
Clouds Few 3200 ft
Scattered Clouds 5500 ft
Mostly Cloudy 14000 ft
Dew Point Not available.
Humidity Not available.
Rainfall --
Snow Depth Not available.
6:51 AM 5:14 PM
Waning Crescent, 9% visible
METAR KNFG 242356Z 23005KT 7SM FEW032 SCT055 BKN140 12/06 A3004 RMK AO2 SLPNO T01220056 10133 20083 53009

Get Your Daily Forecast Email!

Thanks for signing up!

Be on the lookout for a verification email in your inbox.

You'll start receiving the daily forecast at 8 AM.

×

10-Day Weather Forecast

Almanac

Astronomy

Jan. 24, 2017 Rise Set
Actual Time
Civil Twilight
Nautical Twilight
Astronomical Twilight
Moon
Length of Visible Light
Length of Day
Tomorrow will be .
, % of the Moon is Illuminated

Today's Extremes

State Highs State Lows

Community

WunderPhotos

Upload Photos

1,962,540 photos uploaded!

WunderBlog® & News

Nearby

Air Quality

  Air Quality AQ Index Pollutant
Not available.

Snow Depth

Station Depth Elevation

Earthquake Activity

City Distance Mag. Time & Date
Minimum magnitude displayed is 2.5.

Coastal Water Temperatures

Place Temperature

Stations

Nearby Weather Stations

Station Location Temp. Windchill Dew Point Humidity Wind Precip. Elev Updated Type
                   

Watches & Warnings

High Surf Advisory
Issued: 1:38 PM PST Jan. 24, 2017 – National Weather Service

... High surf advisory remains in effect until 9 am PST
Wednesday...

* surf... 5 to 8 feet with sets to 11 feet... lowering to 4 to 6
feet by late Wednesday morning. Highest surf south of Carlsbad.

* Impacts... strong rip currents and dangerous swimming
conditions. Large waves can wash people off jetties and rocks.

Precautionary/preparedness actions...

A high surf advisory means that high surf will affect beaches in
the advisory area... producing rip currents and localized beach
erosion.